Time;durP1;ratioP1;P1;durP2;ratioP2;P2;SDS_P1;SDS_P2;PMS_P1;PMS_P2;Temp;Humidity;BMP_temperature;BMP_pressure;BME280_temperature;BME280_humidity;BME280_pressure;Samples;Min_cycle;Max_cycle;Signal;HPM_P1;HPM_P2
2023/03/17 00:00:47;;;;;;;6.80;3.28;;;6.60;99.90;;;;;;5030966;28;20422;-67
2023/03/17 00:03:22;;;;;;;4.93;3.10;;;6.60;99.90;;;;;;5034148;28;20044;-68
2023/03/17 00:05:48;;;;;;;5.80;3.05;;;6.60;99.90;;;;;;5033700;28;20041;-68
2023/03/17 00:08:30;;;;;;;4.85;2.70;;;6.70;99.90;;;;;;5035419;28;20048;-68
2023/03/17 00:10:56;;;;;;;4.55;2.58;;;6.70;99.90;;;;;;5048791;28;20135;-68
2023/03/17 00:13:22;;;;;;;4.68;2.63;;;6.70;99.90;;;;;;5045361;28;20067;-68
2023/03/17 00:15:54;;;;;;;5.30;2.63;;;6.70;99.90;;;;;;5038237;28;20049;-67
2023/03/17 00:18:20;;;;;;;5.32;2.85;;;6.80;99.90;;;;;;5038311;28;20056;-67
2023/03/17 00:20:46;;;;;;;5.85;3.25;;;6.90;99.90;;;;;;5038327;28;20377;-69
2023/03/17 00:23:21;;;;;;;5.45;3.28;;;6.90;99.90;;;;;;5039238;28;20067;-67
2023/03/17 00:25:47;;;;;;;5.13;2.95;;;6.80;99.90;;;;;;5050174;28;20048;-68
2023/03/17 00:28:25;;;;;;;7.10;2.85;;;6.90;99.90;;;;;;5039231;28;20117;-68
2023/03/17 00:30:54;;;;;;;4.15;2.80;;;6.80;99.90;;;;;;5038291;28;20504;-67
2023/03/17 00:33:25;;;;;;;4.45;2.50;;;6.80;99.90;;;;;;5039934;28;20377;-68
2023/03/17 00:35:51;;;;;;;4.05;2.70;;;6.80;99.90;;;;;;5023842;28;20052;-67
2023/03/17 00:38:19;;;;;;;5.70;3.30;;;6.80;99.90;;;;;;5034532;28;20041;-68
2023/03/17 00:40:45;;;;;;;3.92;2.88;;;7.00;99.90;;;;;;5029721;28;20079;-67
2023/03/17 00:43:11;;;;;;;3.67;2.50;;;6.90;99.90;;;;;;5040009;28;20068;-68
2023/03/17 00:45:38;;;;;;;5.13;2.53;;;6.90;99.90;;;;;;5028842;28;20029;-68
2023/03/17 00:48:17;;;;;;;5.43;3.20;;;7.00;99.90;;;;;;5035519;28;20094;-68
2023/03/17 00:50:43;;;;;;;4.88;2.80;;;7.00;99.90;;;;;;5044541;28;20087;-68
2023/03/17 00:53:17;;;;;;;5.68;2.97;;;7.00;99.90;;;;;;5040144;28;20043;-68
2023/03/17 00:55:44;;;;;;;5.43;2.83;;;7.00;99.90;;;;;;5038184;28;20140;-68
2023/03/17 00:58:18;;;;;;;3.65;2.50;;;7.00;99.90;;;;;;5032678;28;20390;-67
2023/03/17 01:00:44;;;;;;;6.85;3.63;;;7.00;97.00;;;;;;5040264;28;20059;-68
2023/03/17 01:03:11;;;;;;;6.38;2.75;;;7.00;99.90;;;;;;5033260;28;20044;-68
2023/03/17 01:05:38;;;;;;;5.10;2.70;;;7.00;99.90;;;;;;5032780;28;20059;-66
2023/03/17 01:08:04;;;;;;;4.57;3.10;;;6.90;99.90;;;;;;5010384;28;20582;-66
2023/03/17 01:10:31;;;;;;;4.07;3.00;;;6.90;98.60;;;;;;5042669;28;20538;-67
2023/03/17 01:12:58;;;;;;;3.97;2.72;;;6.90;99.90;;;;;;5033686;28;20463;-68
2023/03/17 01:15:27;;;;;;;4.82;3.10;;;6.90;99.90;;;;;;5012173;28;20092;-68
2023/03/17 01:17:53;;;;;;;4.53;2.90;;;6.90;99.90;;;;;;5044776;28;20470;-67
2023/03/17 01:20:24;;;;;;;5.22;2.95;;;6.80;99.90;;;;;;5037275;28;20033;-68
2023/03/17 01:22:49;;;;;;;;;;;6.90;99.90;;;;;;5014083;28;20049;-67
2023/03/17 01:25:16;;;;;;;4.20;2.47;;;6.90;94.80;;;;;;5044965;28;19917;-68
2023/03/17 01:27:43;;;;;;;3.78;2.45;;;6.90;99.90;;;;;;5008527;28;20358;-67
2023/03/17 01:30:18;;;;;;;4.50;2.90;;;6.90;99.90;;;;;;5027207;28;20041;-69
2023/03/17 01:32:44;;;;;;;3.55;2.78;;;6.90;99.90;;;;;;5044274;28;20053;-68
2023/03/17 01:35:10;;;;;;;3.17;2.65;;;6.90;99.90;;;;;;5034412;28;20037;-68
2023/03/17 01:37:36;;;;;;;4.70;2.80;;;6.90;99.90;;;;;;5032256;28;20095;-67
2023/03/17 01:40:03;;;;;;;3.50;2.72;;;7.00;99.90;;;;;;5034020;28;20033;-67
2023/03/17 01:42:28;;;;;;;4.38;3.08;;;6.90;99.90;;;;;;5037270;28;20040;-68
2023/03/17 01:45:02;;;;;;;4.40;2.92;;;7.00;97.60;;;;;;5038921;28;20131;-68
2023/03/17 01:47:30;;;;;;;7.03;3.20;;;7.00;99.90;;;;;;5036521;28;20041;-68
2023/03/17 01:50:06;;;;;;;4.15;3.00;;;7.00;99.90;;;;;;5036166;28;20488;-68
2023/03/17 01:52:35;;;;;;;8.73;3.10;;;7.00;99.90;;;;;;5034392;28;20094;-69
2023/03/17 01:55:06;;;;;;;4.28;3.00;;;7.00;99.90;;;;;;5041682;28;20048;-66
2023/03/17 01:57:39;;;;;;;5.88;2.67;;;7.10;99.90;;;;;;5031863;28;20032;-67
2023/03/17 02:00:15;;;;;;;6.05;2.88;;;7.10;95.80;;;;;;5027039;28;20088;-68
2023/03/17 02:02:47;;;;;;;4.90;2.70;;;7.10;99.90;;;;;;5024034;28;20436;-67
2023/03/17 02:05:18;;;;;;;4.35;3.30;;;7.10;99.90;;;;;;5037632;28;20033;-67
2023/03/17 02:07:44;;;;;;;6.93;3.00;;;7.10;99.90;;;;;;5041151;28;20044;-68
2023/03/17 02:10:12;;;;;;;4.82;2.97;;;7.10;99.90;;;;;;5034211;28;20053;-68
2023/03/17 02:12:40;;;;;;;6.15;3.40;;;7.00;99.90;;;;;;5034770;28;20377;-67
2023/03/17 02:15:06;;;;;;;7.88;3.35;;;7.10;99.90;;;;;;5012767;28;20420;-68
2023/03/17 02:17:32;;;;;;;4.68;3.28;;;7.20;99.90;;;;;;5034659;28;20158;-68
2023/03/17 02:20:16;;;;;;;5.68;2.75;;;7.10;99.90;;;;;;5032524;28;20045;-67
2023/03/17 02:22:49;;;;;;;4.32;3.20;;;7.00;99.90;;;;;;5031991;28;20481;-68
2023/03/17 02:25:16;;;;;;;6.45;3.15;;;7.10;99.90;;;;;;5031586;28;20952;-69
2023/03/17 02:27:45;;;;;;;6.13;2.72;;;7.00;99.90;;;;;;5029485;28;20045;-69
2023/03/17 02:30:13;;;;;;;6.63;3.10;;;7.00;99.90;;;;;;5022131;28;20040;-67
2023/03/17 02:32:39;;;;;;;5.57;3.00;;;6.90;99.90;;;;;;5041191;28;20041;-68
2023/03/17 02:35:07;;;;;;;3.83;2.85;;;6.80;99.90;;;;;;5043098;28;20041;-67
2023/03/17 02:37:32;;;;;;;4.68;2.72;;;6.80;99.90;;;;;;5042444;28;20041;-68
2023/03/17 02:39:59;;;;;;;7.03;3.47;;;6.80;99.90;;;;;;5030461;28;20527;-68
2023/03/17 02:42:25;;;;;;;4.95;3.00;;;6.80;99.90;;;;;;5047259;28;20524;-66
2023/03/17 02:44:51;;;;;;;4.55;3.22;;;6.80;95.20;;;;;;5039343;28;20073;-67
2023/03/17 02:47:17;;;;;;;5.53;3.03;;;6.80;97.10;;;;;;5036650;28;20028;-68
2023/03/17 02:49:44;;;;;;;5.20;2.92;;;6.80;99.90;;;;;;5047050;28;20094;-68
2023/03/17 02:52:10;;;;;;;5.15;3.65;;;6.80;99.90;;;;;;5030334;28;20045;-67
2023/03/17 02:54:36;;;;;;;7.43;3.63;;;6.70;99.90;;;;;;5034627;28;20044;-68
2023/03/17 02:57:02;;;;;;;6.68;3.25;;;6.70;99.90;;;;;;5042637;28;20539;-67
2023/03/17 02:59:28;;;;;;;4.75;3.22;;;6.80;99.90;;;;;;5031913;28;20042;-67
2023/03/17 03:01:55;;;;;;;7.30;3.60;;;6.80;99.90;;;;;;5032744;28;20177;-67
2023/03/17 03:04:21;;;;;;;5.57;3.03;;;6.80;99.90;;;;;;5009010;28;20061;-67
2023/03/17 03:06:47;;;;;;;5.53;3.22;;;6.80;99.90;;;;;;5040156;28;20052;-68
2023/03/17 03:09:13;;;;;;;6.55;3.50;;;6.80;99.90;;;;;;5030346;28;20412;-68
2023/03/17 03:11:39;;;;;;;5.28;2.80;;;6.90;99.40;;;;;;5034940;28;20518;-68
2023/03/17 03:14:07;;;;;;;5.80;3.35;;;7.00;99.90;;;;;;5035197;28;20068;-68
2023/03/17 03:16:33;;;;;;;5.65;3.25;;;6.90;99.90;;;;;;5033177;28;20044;-67
2023/03/17 03:18:58;;;;;;;5.05;3.40;;;6.90;99.90;;;;;;5034518;28;20052;-68
2023/03/17 03:21:24;;;;;;;5.63;3.15;;;6.90;99.90;;;;;;5044308;28;20037;-67
2023/03/17 03:23:49;;;;;;;5.15;3.28;;;6.80;99.90;;;;;;5043624;28;20524;-68
2023/03/17 03:26:15;;;;;;;5.38;3.30;;;6.90;99.90;;;;;;5038738;28;20044;-68
2023/03/17 03:28:41;;;;;;;5.57;3.33;;;6.80;99.90;;;;;;5028184;28;20132;-68
2023/03/17 03:31:07;;;;;;;7.00;3.90;;;6.80;99.90;;;;;;5025541;28;20045;-68
2023/03/17 03:33:33;;;;;;;7.45;3.42;;;6.90;99.90;;;;;;5033018;28;20036;-68
2023/03/17 03:35:59;;;;;;;8.52;3.40;;;6.90;99.90;;;;;;5037219;28;20045;-67
2023/03/17 03:38:25;;;;;;;6.03;3.35;;;6.80;99.90;;;;;;5037906;28;20072;-68
2023/03/17 03:40:51;;;;;;;6.47;3.45;;;6.90;99.90;;;;;;5034051;28;20091;-67
2023/03/17 03:43:17;;;;;;;7.20;3.42;;;6.90;99.90;;;;;;5036813;28;20037;-68
2023/03/17 03:45:43;;;;;;;7.05;3.63;;;7.00;99.90;;;;;;5038846;28;20065;-68
2023/03/17 03:48:09;;;;;;;4.97;3.10;;;7.00;94.30;;;;;;5042106;28;20512;-68
2023/03/17 03:50:35;;;;;;;5.13;3.80;;;7.00;99.90;;;;;;5039176;28;20049;-67
2023/03/17 03:53:00;;;;;;;4.28;3.30;;;7.00;99.90;;;;;;5039085;28;20455;-68
2023/03/17 03:55:26;;;;;;;4.07;3.00;;;7.00;99.90;;;;;;5042081;28;20538;-68
2023/03/17 03:57:51;;;;;;;4.55;3.13;;;7.00;99.90;;;;;;5030335;28;21153;-68
2023/03/17 04:00:17;;;;;;;4.22;2.90;;;7.00;99.90;;;;;;5008841;28;20099;-68
2023/03/17 04:02:46;;;;;;;5.97;3.33;;;6.90;97.60;;;;;;5042536;28;20045;-67
2023/03/17 04:05:17;;;;;;;4.90;3.35;;;6.90;99.90;;;;;;5034429;28;20029;-68
2023/03/17 04:07:43;;;;;;;5.35;3.13;;;7.00;99.90;;;;;;5030886;28;20049;-67
2023/03/17 04:10:14;;;;;;;5.82;3.45;;;6.90;99.90;;;;;;5039417;28;20060;-68
2023/03/17 04:12:40;;;;;;;;;;;6.90;99.90;;;;;;5027698;28;20352;-68
2023/03/17 04:15:07;;;;;;;5.60;3.38;;;6.90;95.50;;;;;;5021774;28;19924;-68
2023/03/17 04:17:33;;;;;;;5.90;3.05;;;6.90;99.90;;;;;;5018821;28;20048;-68
2023/03/17 04:19:59;;;;;;;7.32;2.97;;;6.90;99.90;;;;;;5030679;28;20037;-68
2023/03/17 04:22:25;;;;;;;5.07;3.33;;;6.90;99.90;;;;;;5032809;28;20041;-67
2023/03/17 04:24:51;;;;;;;5.32;2.90;;;7.00;99.90;;;;;;5034790;28;20036;-69
2023/03/17 04:27:17;;;;;;;6.85;3.38;;;7.00;99.90;;;;;;5037970;28;20037;-68
2023/03/17 04:29:43;;;;;;;3.97;3.28;;;7.00;96.60;;;;;;5026290;28;20591;-68
2023/03/17 04:32:12;;;;;;;6.32;3.78;;;6.90;99.90;;;;;;5032891;28;20053;-68
2023/03/17 04:34:38;;;;;;;7.18;3.20;;;6.90;99.90;;;;;;5039050;28;20041;-67
2023/03/17 04:37:04;;;;;;;6.38;3.42;;;6.90;99.90;;;;;;5047591;28;20045;-69
2023/03/17 04:39:29;;;;;;;6.57;3.38;;;6.90;99.90;;;;;;5048154;28;20033;-67
2023/03/17 04:41:55;;;;;;;3.80;2.97;;;6.90;99.90;;;;;;5047873;28;20547;-69
2023/03/17 04:44:21;;;;;;;5.40;3.22;;;6.90;99.90;;;;;;5039071;28;20120;-68
2023/03/17 04:46:46;;;;;;;4.30;3.17;;;6.90;99.90;;;;;;5036716;28;20045;-68
2023/03/17 04:49:12;;;;;;;5.30;3.42;;;6.90;99.90;;;;;;5045314;28;20504;-68
2023/03/17 04:51:37;;;;;;;6.53;3.40;;;6.90;99.90;;;;;;5043119;28;20041;-67
2023/03/17 04:54:04;;;;;;;4.93;3.38;;;6.80;99.90;;;;;;5041578;28;20448;-68
2023/03/17 04:56:30;;;;;;;3.47;3.10;;;6.80;99.90;;;;;;5033748;28;20044;-68
2023/03/17 04:58:56;;;;;;;5.57;3.50;;;6.80;99.90;;;;;;5042871;28;20044;-68
2023/03/17 05:01:21;;;;;;;3.65;3.03;;;6.80;99.90;;;;;;5038861;28;20081;-68
2023/03/17 05:03:47;;;;;;;6.70;3.38;;;6.80;99.90;;;;;;5037893;28;20034;-68
2023/03/17 05:06:13;;;;;;;4.70;3.47;;;6.70;99.90;;;;;;5014307;28;20183;-68
2023/03/17 05:08:39;;;;;;;4.60;3.30;;;6.70;99.90;;;;;;5014520;28;20556;-68
2023/03/17 05:11:04;;;;;;;5.70;3.83;;;6.70;99.90;;;;;;5031763;28;20044;-68
2023/03/17 05:13:30;;;;;;;5.20;3.50;;;6.70;99.90;;;;;;5037042;28;20045;-68
2023/03/17 05:15:56;;;;;;;4.82;3.40;;;6.70;99.90;;;;;;5043572;28;20071;-68
2023/03/17 05:18:23;;;;;;;6.88;3.70;;;6.70;99.90;;;;;;5038071;28;20050;-69
2023/03/17 05:20:49;;;;;;;5.57;3.47;;;6.70;99.90;;;;;;5037097;28;20051;-67
2023/03/17 05:23:15;;;;;;;6.60;3.45;;;6.70;99.90;;;;;;5037355;28;20380;-67
2023/03/17 05:25:41;;;;;;;9.65;3.15;;;6.80;99.90;;;;;;5032382;28;20041;-67
2023/03/17 05:28:07;;;;;;;4.82;3.15;;;6.70;99.90;;;;;;5036774;28;20140;-66
2023/03/17 05:30:35;;;;;;;4.65;3.38;;;6.70;99.90;;;;;;5022914;28;20098;-67
2023/03/17 05:33:01;;;;;;;5.63;3.28;;;6.70;97.20;;;;;;5036242;28;20049;-68
2023/03/17 05:35:27;;;;;;;7.95;3.38;;;6.80;99.90;;;;;;5024423;28;20064;-67
2023/03/17 05:37:53;;;;;;;7.40;3.38;;;6.70;99.90;;;;;;5038946;28;20033;-67
2023/03/17 05:40:18;;;;;;;5.88;3.40;;;6.70;99.90;;;;;;5041376;28;20048;-66
2023/03/17 05:42:44;;;;;;;5.22;3.47;;;6.80;99.90;;;;;;5032852;28;20034;-68
2023/03/17 05:45:10;;;;;;;5.30;3.45;;;6.80;99.90;;;;;;5041458;28;20218;-67
2023/03/17 05:47:36;;;;;;;5.00;3.42;;;6.80;99.90;;;;;;5014692;28;20040;-67
2023/03/17 05:50:03;;;;;;;5.55;3.40;;;6.80;99.90;;;;;;5040581;28;20041;-68
2023/03/17 05:52:29;;;;;;;4.80;3.10;;;6.70;99.90;;;;;;5028394;28;20037;-67
2023/03/17 05:54:55;;;;;;;6.03;3.40;;;6.70;99.90;;;;;;5042980;28;20037;-68
2023/03/17 05:57:22;;;;;;;4.95;3.03;;;6.60;99.90;;;;;;5030979;28;20052;-67
2023/03/17 05:59:48;;;;;;;5.47;3.30;;;6.50;99.90;;;;;;5027500;28;20037;-67
2023/03/17 06:02:14;;;;;;;5.18;3.25;;;6.50;99.90;;;;;;5031354;28;20037;-66
2023/03/17 06:04:40;;;;;;;5.28;3.38;;;6.50;99.90;;;;;;5025930;28;20067;-67
2023/03/17 06:07:08;;;;;;;5.00;3.20;;;6.50;99.90;;;;;;5024953;28;20075;-68
2023/03/17 06:09:34;;;;;;;4.30;3.30;;;6.60;99.90;;;;;;5032264;28;20071;-67
2023/03/17 06:11:59;;;;;;;5.30;3.38;;;6.60;99.90;;;;;;5033409;28;20037;-66
2023/03/17 06:14:25;;;;;;;5.47;3.15;;;6.60;99.90;;;;;;5032305;28;20423;-66
2023/03/17 06:16:51;;;;;;;4.80;3.05;;;6.70;99.90;;;;;;5046438;28;20041;-66
2023/03/17 06:19:17;;;;;;;6.50;3.53;;;6.80;99.90;;;;;;5026637;28;20429;-67
2023/03/17 06:21:42;;;;;;;5.55;3.40;;;6.80;99.90;;;;;;5025388;28;20121;-67
2023/03/17 06:24:08;;;;;;;6.10;3.28;;;6.90;99.90;;;;;;5027302;28;20390;-67
2023/03/17 06:26:35;;;;;;;7.82;3.20;;;6.90;99.90;;;;;;5028780;28;22415;-66
2023/03/17 06:29:02;;;;;;;4.70;3.10;;;7.00;99.90;;;;;;5025986;28;20037;-67
2023/03/17 06:31:28;;;;;;;4.82;2.92;;;7.20;98.30;;;;;;5031903;28;20045;-67
2023/03/17 06:33:53;;;;;;;4.45;3.03;;;7.30;99.90;;;;;;5032565;28;20040;-67
2023/03/17 06:36:19;;;;;;;6.47;3.10;;;7.40;99.90;;;;;;5042781;28;20120;-67
2023/03/17 06:38:45;;;;;;;5.90;2.85;;;7.50;99.90;;;;;;5042245;28;20041;-67
2023/03/17 06:41:10;;;;;;;6.15;3.40;;;7.50;99.90;;;;;;5043337;28;20377;-66
2023/03/17 06:43:36;;;;;;;5.80;2.97;;;7.60;99.90;;;;;;5040307;28;20040;-67
2023/03/17 06:46:02;;;;;;;4.43;2.72;;;7.60;99.90;;;;;;5041056;28;20065;-68
2023/03/17 06:48:27;;;;;;;4.88;2.85;;;7.70;99.90;;;;;;5033309;28;20072;-66
2023/03/17 06:50:53;;;;;;;4.35;2.90;;;7.80;98.80;;;;;;5042926;28;20044;-66
2023/03/17 06:53:19;;;;;;;7.15;3.55;;;7.90;99.90;;;;;;5021872;28;20062;-67
2023/03/17 06:55:45;;;;;;;5.45;2.90;;;8.00;99.90;;;;;;5041889;28;20049;-67
2023/03/17 06:58:12;;;;;;;5.35;3.30;;;8.10;99.90;;;;;;5041846;28;20045;-68
2023/03/17 07:00:38;;;;;;;4.40;2.67;;;8.20;99.90;;;;;;5038400;28;20056;-67
2023/03/17 07:03:04;;;;;;;5.15;2.95;;;8.10;99.90;;;;;;5030036;28;20045;-68
2023/03/17 07:05:31;;;;;;;4.05;2.65;;;8.10;99.90;;;;;;5044730;28;20044;-67
2023/03/17 07:07:56;;;;;;;10.68;5.85;;;8.20;99.90;;;;;;5046836;28;20735;-67
2023/03/17 07:10:22;;;;;;;4.72;3.00;;;8.10;99.90;;;;;;5034470;28;20029;-67
2023/03/17 07:12:48;;;;;;;5.88;2.85;;;8.20;99.90;;;;;;5045713;28;20037;-67
2023/03/17 07:15:14;;;;;;;6.47;2.83;;;8.20;99.90;;;;;;5032806;28;21048;-67
2023/03/17 07:17:40;;;;;;;8.38;3.13;;;8.30;99.20;;;;;;5038774;28;20038;-68
2023/03/17 07:20:06;;;;;;;3.88;2.75;;;8.30;99.90;;;;;;5049595;28;20576;-67
2023/03/17 07:22:32;;;;;;;4.50;2.85;;;8.40;99.90;;;;;;5027116;28;20135;-67
2023/03/17 07:24:58;;;;;;;5.60;3.17;;;8.50;99.90;;;;;;5033680;28;20099;-68
2023/03/17 07:27:25;;;;;;;5.60;2.78;;;8.60;99.90;;;;;;5047851;28;20469;-66
2023/03/17 07:29:51;;;;;;;3.78;2.65;;;8.70;92.70;;;;;;5018181;28;20079;-66
2023/03/17 07:32:17;;;;;;;5.68;2.65;;;8.80;94.40;;;;;;5053416;28;20400;-65
2023/03/17 07:34:43;;;;;;;6.10;3.50;;;8.80;99.90;;;;;;5051928;28;20044;-67
2023/03/17 07:37:09;;;;;;;5.05;2.70;;;8.80;99.90;;;;;;5040857;28;20041;-67
2023/03/17 07:39:35;;;;;;;3.88;2.72;;;9.00;99.90;;;;;;5044401;28;20044;-65
2023/03/17 07:42:01;;;;;;;4.35;2.80;;;9.30;92.30;;;;;;5040045;28;20500;-67
2023/03/17 07:44:27;;;;;;;5.75;3.30;;;9.70;99.90;;;;;;5041114;28;20461;-67
2023/03/17 07:46:54;;;;;;;3.63;2.25;;;10.10;99.90;;;;;;5042114;28;20033;-69
2023/03/17 07:49:20;;;;;;;7.53;3.47;;;10.20;99.90;;;;;;5038466;28;20041;-67
2023/03/17 07:51:45;;;;;;;6.07;3.28;;;10.20;99.90;;;;;;5042879;28;20120;-67
2023/03/17 07:54:12;;;;;;;3.17;2.47;;;10.20;99.90;;;;;;5045776;28;20149;-67
2023/03/17 07:56:38;;;;;;;5.00;2.90;;;10.20;99.90;;;;;;5040390;28;20060;-67
2023/03/17 07:59:06;;;;;;;4.63;3.00;;;10.10;99.90;;;;;;5033682;28;20033;-69
2023/03/17 08:01:32;;;;;;;5.20;3.05;;;10.10;99.90;;;;;;5031359;28;20088;-67
2023/03/17 08:03:57;;;;;;;5.55;2.78;;;10.00;99.90;;;;;;5038611;28;20135;-67
2023/03/17 08:06:26;;;;;;;3.95;2.65;;;10.00;99.90;;;;;;5040345;28;20037;-67
2023/03/17 08:08:53;;;;;;;4.90;3.00;;;10.00;99.90;;;;;;5045758;28;20064;-68
2023/03/17 08:11:19;;;;;;;4.25;2.85;;;10.00;99.60;;;;;;5047404;28;20036;-67
2023/03/17 08:13:45;;;;;;;5.68;3.10;;;10.10;99.90;;;;;;5042736;28;20045;-66
2023/03/17 08:16:11;;;;;;;7.53;2.95;;;10.20;99.90;;;;;;5040296;28;20519;-68
2023/03/17 08:18:37;;;;;;;4.03;2.80;;;10.40;99.90;;;;;;5043491;28;20074;-68
2023/03/17 08:21:04;;;;;;;5.45;2.78;;;10.40;83.30;;;;;;5049442;28;20129;-67
2023/03/17 08:23:30;;;;;;;4.78;2.67;;;10.70;99.90;;;;;;5041601;28;20045;-68
2023/03/17 08:26:00;;;;;;;4.78;2.90;;;10.80;99.90;;;;;;5045787;28;20037;-66
2023/03/17 08:28:26;;;;;;;4.60;2.72;;;10.90;95.10;;;;;;5045233;28;20046;-67
2023/03/17 08:30:53;;;;;;;5.43;3.10;;;11.00;99.90;;;;;;5039517;28;20033;-67
2023/03/17 08:33:19;;;;;;;5.47;2.92;;;10.90;89.30;;;;;;5051467;28;20056;-67
2023/03/17 08:35:45;;;;;;;5.68;3.42;;;10.90;90.40;;;;;;5053598;28;20068;-65
2023/03/17 08:38:11;;;;;;;4.63;3.30;;;10.90;85.50;;;;;;5052700;28;20049;-67
2023/03/17 08:40:38;;;;;;;4.10;2.88;;;10.90;89.60;;;;;;5050956;28;20095;-67
2023/03/17 08:43:05;;;;;;;4.30;3.13;;;10.90;93.80;;;;;;5051525;28;20041;-67
2023/03/17 08:45:31;;;;;;;4.57;2.70;;;11.00;86.70;;;;;;5048866;28;20040;-68
2023/03/17 08:47:56;;;;;;;6.97;3.53;;;11.00;95.20;;;;;;5018418;28;20114;-66
2023/03/17 08:50:23;;;;;;;3.80;2.83;;;11.10;90.60;;;;;;5034839;28;20056;-70
2023/03/17 08:52:50;;;;;;;3.78;2.95;;;11.10;96.20;;;;;;5030726;28;20132;-66
2023/03/17 08:55:17;;;;;;;4.45;3.35;;;11.30;95.00;;;;;;5049861;28;20107;-67
2023/03/17 08:57:43;;;;;;;5.75;3.20;;;11.40;85.00;;;;;;5053195;28;20067;-67
2023/03/17 09:00:12;;;;;;;5.85;3.13;;;11.30;78.30;;;;;;5032887;28;20042;-66
2023/03/17 09:02:41;;;;;;;6.38;3.33;;;11.40;90.00;;;;;;5043839;28;20045;-67
2023/03/17 09:05:09;;;;;;;4.47;2.92;;;11.30;77.40;;;;;;5031757;28;20045;-66
2023/03/17 09:07:35;;;;;;;6.68;3.40;;;11.40;94.40;;;;;;5031236;28;20041;-67
2023/03/17 09:10:03;;;;;;;6.40;3.05;;;11.50;92.50;;;;;;5029553;28;20802;-65
2023/03/17 09:12:29;;;;;;;4.97;3.47;;;11.50;75.80;;;;;;5040523;28;20044;-68
2023/03/17 09:14:55;;;;;;;5.45;3.60;;;11.50;94.50;;;;;;5043312;28;20487;-66
2023/03/17 09:17:21;;;;;;;5.55;3.03;;;11.50;74.30;;;;;;5018108;28;20040;-68
2023/03/17 09:19:47;;;;;;;5.13;3.20;;;11.60;90.60;;;;;;5019658;28;20095;-68
2023/03/17 09:22:14;;;;;;;6.05;3.08;;;11.60;94.10;;;;;;5044530;28;20169;-68
2023/03/17 09:24:40;;;;;;;4.75;3.17;;;11.80;93.50;;;;;;5033891;28;20488;-66
2023/03/17 09:27:05;;;;;;;9.70;3.58;;;12.00;95.80;;;;;;5017381;28;20037;-66
2023/03/17 09:29:32;;;;;;;6.10;3.03;;;12.00;80.40;;;;;;5035401;28;20049;-67
2023/03/17 09:31:58;;;;;;;6.57;3.50;;;12.10;69.70;;;;;;5045108;28;20068;-68
2023/03/17 09:34:24;;;;;;;4.32;3.10;;;12.40;83.50;;;;;;5017877;28;20476;-64
2023/03/17 09:36:50;;;;;;;5.70;3.22;;;12.40;75.80;;;;;;5031969;28;20137;-66
2023/03/17 09:39:15;;;;;;;5.65;3.17;;;12.40;89.40;;;;;;5033223;28;20128;-67
2023/03/17 09:42:00;;;;;;;6.30;3.35;;;12.40;84.20;;;;;;5034721;28;20116;-66
2023/03/17 09:44:50;;;;;;;5.65;3.38;;;12.30;66.70;;;;;;5034100;28;20097;-67
2023/03/17 09:47:52;;;;;;;5.50;3.38;;;12.30;69.00;;;;;;5045643;28;20167;-66
2023/03/17 09:50:36;;;;;;;6.18;3.45;;;12.50;73.00;;;;;;5039100;28;20488;-67
2023/03/17 09:53:04;;;;;;;5.50;4.00;;;12.60;68.50;;;;;;5022838;28;20038;-67
2023/03/17 09:55:31;;;;;;;9.30;3.20;;;12.80;72.10;;;;;;5038889;28;20045;-67
2023/03/17 09:57:57;;;;;;;7.90;3.90;;;12.70;72.30;;;;;;5049186;28;20119;-67
2023/03/17 10:00:26;;;;;;;6.38;3.80;;;12.80;73.20;;;;;;5040313;28;20052;-66
2023/03/17 10:02:52;;;;;;;5.88;3.45;;;12.90;73.80;;;;;;5049734;28;20566;-68
2023/03/17 10:05:22;;;;;;;8.35;3.97;;;12.90;92.70;;;;;;5047036;28;20045;-69
2023/03/17 10:08:14;;;;;;;5.75;3.60;;;13.00;77.70;;;;;;5051171;28;20056;-67
2023/03/17 10:11:09;;;;;;;6.45;3.47;;;13.10;73.20;;;;;;5048457;28;20067;-67
2023/03/17 10:13:53;;;;;;;5.55;3.45;;;13.10;69.50;;;;;;5047823;28;20056;-67
2023/03/17 10:16:47;;;;;;;8.80;3.78;;;13.20;67.50;;;;;;5051901;28;20044;-65
2023/03/17 10:19:31;;;;;;;6.78;3.50;;;13.30;69.80;;;;;;5047317;28;20049;-67
2023/03/17 10:22:03;;;;;;;8.00;3.95;;;13.30;69.40;;;;;;5049009;28;20029;-66
2023/03/17 10:24:32;;;;;;;7.32;4.00;;;13.30;73.60;;;;;;5034674;28;20065;-66
2023/03/17 10:27:03;;;;;;;7.63;3.88;;;13.30;73.30;;;;;;5038707;28;20091;-67
2023/03/17 10:29:30;;;;;;;8.70;3.97;;;13.40;70.60;;;;;;5034794;28;20365;-69
2023/03/17 10:31:56;;;;;;;8.07;4.03;;;13.60;92.00;;;;;;5030869;28;20520;-62
2023/03/17 10:34:28;;;;;;;6.38;3.95;;;13.80;88.20;;;;;;5047193;28;20033;-68
2023/03/17 10:37:05;;;;;;;6.35;4.38;;;13.80;92.80;;;;;;5037789;28;20036;-66
2023/03/17 10:39:40;;;;;;;6.25;3.63;;;13.90;81.80;;;;;;5033658;28;20458;-66
2023/03/17 10:42:34;;;;;;;7.20;3.88;;;14.00;92.50;;;;;;5049559;28;20116;-67
2023/03/17 10:45:23;;;;;;;5.80;3.60;;;14.10;83.50;;;;;;5025441;28;20061;-65
2023/03/17 10:47:49;;;;;;;6.10;4.10;;;14.00;74.30;;;;;;5039164;28;20029;-66
2023/03/17 10:50:31;;;;;;;7.30;4.45;;;14.00;73.90;;;;;;5035676;28;20067;-67
2023/03/17 10:52:59;;;;;;;8.13;4.15;;;14.20;90.70;;;;;;5043590;28;20037;-67
2023/03/17 10:55:49;;;;;;;7.50;4.20;;;14.20;71.90;;;;;;5026061;28;20040;-67
2023/03/17 10:58:35;;;;;;;7.32;3.60;;;14.30;70.10;;;;;;5025712;28;20394;-67
2023/03/17 11:01:28;;;;;;;7.53;4.07;;;14.30;73.20;;;;;;5034349;28;20064;-67
2023/03/17 11:03:54;;;;;;;5.80;4.20;;;14.40;68.60;;;;;;5036123;28;20040;-69
2023/03/17 11:06:32;;;;;;;7.07;4.25;;;14.40;93.30;;;;;;5038275;28;20037;-67
2023/03/17 11:09:06;;;;;;;10.95;4.85;;;14.40;73.50;;;;;;5011956;28;20045;-67
2023/03/17 11:11:40;;;;;;;6.03;4.40;;;14.50;80.40;;;;;;5033298;28;20081;-69
2023/03/17 11:14:17;;;;;;;6.72;4.03;;;14.70;85.70;;;;;;5037536;28;20041;-66
2023/03/17 11:16:59;;;;;;;8.38;3.90;;;14.90;71.70;;;;;;5035935;28;20792;-69
2023/03/17 11:19:33;;;;;;;8.18;3.85;;;15.10;77.10;;;;;;5032166;28;20068;-69
2023/03/17 11:22:06;;;;;;;7.43;4.35;;;15.30;77.30;;;;;;5036211;28;20045;-69
2023/03/17 11:24:39;;;;;;;8.15;4.35;;;15.30;74.50;;;;;;5038697;28;20036;-67
2023/03/17 11:27:29;;;;;;;6.78;4.07;;;15.30;74.70;;;;;;5047940;28;20071;-68
2023/03/17 11:30:15;;;;;;;5.82;4.10;;;15.30;64.80;;;;;;5043582;28;20052;-68
2023/03/17 11:32:50;;;;;;;8.27;4.35;;;15.60;69.50;;;;;;5038846;28;20123;-68
2023/03/17 11:35:33;;;;;;;7.10;4.07;;;15.70;84.30;;;;;;5031774;28;20042;-68
2023/03/17 11:38:42;;;;;;;5.95;4.10;;;15.80;68.50;;;;;;5026288;28;20064;-67
2023/03/17 11:41:22;;;;;;;8.45;4.47;;;15.60;65.90;;;;;;5034164;28;20112;-69
2023/03/17 11:44:27;;;;;;;7.18;4.38;;;15.60;85.90;;;;;;5037019;28;20033;-67
2023/03/17 11:47:05;;;;;;;8.00;4.10;;;15.70;62.60;;;;;;5046328;28;20071;-69
2023/03/17 11:49:38;;;;;;;7.57;4.57;;;15.80;68.90;;;;;;5039261;28;20041;-68
2023/03/17 11:52:18;;;;;;;7.22;4.65;;;15.70;69.00;;;;;;5047100;28;20041;-68
2023/03/17 11:55:04;;;;;;;7.90;4.15;;;15.80;73.00;;;;;;5040729;28;20378;-69
2023/03/17 11:57:45;;;;;;;9.75;4.88;;;16.00;76.40;;;;;;5043821;28;20196;-69
2023/03/17 12:00:35;;;;;;;7.95;4.50;;;16.20;74.80;;;;;;5032505;28;20057;-67
2023/03/17 12:03:10;;;;;;;7.32;4.30;;;16.20;61.00;;;;;;5043268;28;20049;-68
2023/03/17 12:05:37;;;;;;;7.35;4.50;;;16.20;91.60;;;;;;5028440;28;20040;-68
2023/03/17 12:08:11;;;;;;;7.18;4.60;;;16.40;69.30;;;;;;5039733;28;20073;-67
2023/03/17 12:10:44;;;;;;;8.95;4.65;;;16.30;75.80;;;;;;5047163;28;20405;-67
2023/03/17 12:13:29;;;;;;;8.88;4.50;;;16.30;68.10;;;;;;5037309;28;20045;-66
2023/03/17 12:16:20;;;;;;;8.57;4.95;;;16.40;60.50;;;;;;5042351;28;20044;-68
2023/03/17 12:18:51;;;;;;;8.40;4.63;;;16.40;63.80;;;;;;5047886;28;20512;-67
2023/03/17 12:21:44;;;;;;;8.70;4.68;;;16.40;70.70;;;;;;5036861;28;20053;-66
2023/03/17 12:24:24;;;;;;;9.48;5.25;;;16.40;67.40;;;;;;5050784;28;20489;-66
2023/03/17 12:26:53;;;;;;;8.00;4.68;;;16.30;58.20;;;;;;5039229;28;20042;-67
2023/03/17 12:29:48;;;;;;;11.55;4.65;;;16.40;65.00;;;;;;5049963;28;20474;-68
2023/03/17 12:32:25;;;;;;;7.20;4.75;;;16.60;79.20;;;;;;5020388;28;20634;-70
2023/03/17 12:35:01;;;;;;;16.38;10.77;;;16.90;90.80;;;;;;5035610;28;20049;-70
2023/03/17 12:37:28;;;;;;;32.40;17.92;;;17.00;86.70;;;;;;5027709;28;20094;-71
2023/03/17 12:40:08;;;;;;;47.83;31.33;;;17.20;83.10;;;;;;5050871;28;20045;-70
2023/03/17 12:42:51;;;;;;;21.88;11.55;;;17.30;74.70;;;;;;5047392;28;20047;-71
2023/03/17 12:45:35;;;;;;;9.48;5.43;;;17.50;69.10;;;;;;5029234;28;20115;-71
2023/03/17 12:48:19;;;;;;;7.65;4.78;;;17.50;83.40;;;;;;5049787;28;20443;-70
2023/03/17 12:51:16;;;;;;;11.07;5.70;;;17.50;82.60;;;;;;5049807;28;20132;-68
2023/03/17 12:53:46;;;;;;;9.32;4.72;;;17.40;60.30;;;;;;5031788;28;20055;-71
2023/03/17 12:56:27;;;;;;;12.13;7.82;;;17.40;87.60;;;;;;5043828;28;20041;-71
2023/03/17 12:59:03;;;;;;;7.38;4.57;;;17.40;76.60;;;;;;5048241;28;20126;-68
2023/03/17 13:01:44;;;;;;;7.10;4.60;;;17.30;65.70;;;;;;5051272;28;20377;-69
2023/03/17 13:04:25;;;;;;;7.80;4.40;;;17.30;79.40;;;;;;5047321;28;20264;-70
2023/03/17 13:07:13;;;;;;;8.55;4.75;;;17.20;65.00;;;;;;5032192;28;20465;-69